CW4643 Weather Reports


Display with metric or nautical units.
time (UTC)temp
F
wind
direction
speed
MPH
gust
MPH
rain 1hr
in
rain 24hr
in
rain mn
in
humidity
%
barometer
mb
20200331094339 32 284 0.0 4.0 0.00 0.00 0.00 71
20200331093321 32 284 2.0 4.0 0.00 0.00 0.00 71
20200331091332 33 284 2.0 5.0 0.00 0.00 0.00 69
20200331090339 32 284 4.0 5.0 0.00 0.00 0.00 69
20200331085320 33 284 3.0 5.0 0.00 0.00 0.00 68
20200331084328 33 284 3.0 4.0 0.00 0.00 0.00 69
20200331083329 32 284 4.0 6.0 0.00 0.00 0.00 69
20200331082332 32 284 0.0 4.0 0.00 0.00 0.00 70
20200331081322 32 284 3.0 4.0 0.00 0.00 0.00 70
20200331080323 32 284 2.0 5.0 0.00 0.00 0.00 70
20200331075326 33 284 3.0 4.0 0.00 0.00 0.00 69
20200331074332 32 284 2.0 4.0 0.00 0.00 0.00 69
20200331073338 33 284 0.0 3.0 0.00 0.00 0.00 66
20200331072321 34 284 1.0 4.0 0.00 0.00 0.00 65
20200331071329 32 284 1.0 4.0 0.00 0.00 0.00 67
20200331070331 32 284 0.0 0.0 0.00 0.00 0.00 68
20200331065334 33 284 0.0 4.0 0.00 0.00 0.00 67
20200331064324 33 284 3.0 5.0 0.00 0.00 0.00 66
20200331063328 33 284 3.0 5.0 0.00 0.00 0.00 65
20200331062329 34 284 2.0 4.0 0.00 0.00 0.00 64
20200331061337 34 284 0.0 3.0 0.00 0.00 0.00 65
20200331060322 34 284 4.0 5.0 0.00 0.00 0.00 64
20200331055324 36 284 2.0 5.0 0.00 0.00 0.00 62
20200331054332 36 284 0.0 0.0 0.00 0.00 0.00 62
20200331053338 34 284 2.0 5.0 0.00 0.00 0.00 64
20200331052322 35 284 1.0 5.0 0.00 0.00 0.00 62
20200331051330 35 284 0.0 2.0 0.00 0.00 0.00 61
20200331050331 36 284 3.0 4.0 0.00 0.00 0.00 60
20200331045333 36 284 0.0 2.0 0.00 0.00 0.00 57
20200331044321 37 284 0.0 4.0 0.00 0.00 0.00 57
20200331043328 37 284 2.0 5.0 0.00 0.00 0.00 56
20200331042331 36 285 0.0 4.0 0.00 0.00 0.00 59
20200331041339 37 285 0.0 4.0 0.00 0.00 0.00 57
20200331040339 38 285 2.0 4.0 0.00 0.00 0.00 53
20200331035325 39 285 0.0 5.0 0.00 0.00 0.00 51
20200331034334 39 285 1.0 4.0 0.00 0.00 0.00 52
20200331033336 41 285 0.0 5.0 0.00 0.00 0.00 48
20200331032339 44 284 1.0 8.0 0.00 0.00 0.00 43
20200331031325 44 283 3.0 13.0 0.00 0.00 0.00 43
20200331030330 43 268 4.0 8.0 0.00 0.00 0.00 44
20200331025331 44 205 2.0 8.0 0.00 0.00 0.00 43
20200331024338 44 272 7.0 19.0 0.00 0.00 0.00 43
20200331023338 44 225 4.0 10.0 0.00 0.00 0.00 43
20200331022324 45 290 6.0 18.0 0.00 0.00 0.00 42
20200331021333 45 294 4.0 14.0 0.00 0.00 0.00 42
20200331020335 45 269 4.0 10.0 0.00 0.00 0.00 41
20200331015337 46 277 5.0 11.0 0.00 0.00 0.00 41
20200331014323 46 229 5.0 10.0 0.00 0.00 0.00 40
20200331013329 47 294 3.0 11.0 0.00 0.00 0.00 39
20200331012331 48 284 7.0 19.0 0.00 0.00 0.00 37
20200331011339 49 292 3.0 10.0 0.00 0.00 0.00 37
20200331010338 50 300 6.0 15.0 0.00 0.00 0.00 34
20200331005324 50 206 7.0 13.0 0.00 0.00 0.00 33
20200331004332 52 331 2.0 7.0 0.00 0.00 0.00 31
20200331003334 52 360 3.0 7.0 0.00 0.00 0.00 31
20200331002336 52 219 2.0 6.0 0.00 0.00 0.00 31
20200331001323 51 344 2.0 11.0 0.00 0.00 0.00 32
20200331000340 51 338 4.0 10.0 0.00 0.00 0.00 31
20200330235331 51 235 7.0 17.0 0.00 0.00 0.00 31
20200330234339 52 284 7.0 15.0 0.00 0.00 0.00 31
20200330233321 52 259 7.0 15.0 0.00 0.00 0.00 29
20200330232327 54 279 7.0 13.0 0.00 0.00 0.00 30
20200330231335 54 9 1.0 9.0 0.00 0.00 0.00 28
20200330230336 53 323 7.0 13.0 0.00 0.00 0.00 28
20200330225338 54 307 7.0 11.0 0.00 0.00 0.00 27
20200330224326 53 197 2.0 15.0 0.00 0.00 0.00 28
20200330223332 54 40 6.0 17.0 0.00 0.00 0.00 27
20200330222334 53 321 2.0 12.0 0.00 0.00 0.00 27
20200330221322 54 215 8.0 14.0 0.00 0.00 0.00 26
20200330220322 53 288 4.0 13.0 0.00 0.00 0.00 26
20200330215328 52 205 6.0 16.0 0.00 0.00 0.00 27
20200330214336 51 305 5.0 11.0 0.00 0.00 0.00 28
20200330213338 52 263 7.0 12.0 0.00 0.00 0.00 27
20200330212320 53 234 6.0 17.0 0.00 0.00 0.00 25
20200330211327 53 280 6.0 14.0 0.00 0.00 0.00 25
20200330210334 53 284 8.0 12.0 0.00 0.00 0.00 25
20200330205336 54 190 8.0 14.0 0.00 0.00 0.00 23
20200330204325 52 275 8.0 18.0 0.00 0.00 0.00 23
20200330203437 53 269 7.0 18.0 0.00 0.00 0.00 21
20200330202333 55 284 8.0 14.0 0.00 0.00 0.00 20
20200330201321 54 271 8.0 16.0 0.00 0.00 0.00 19
20200330200323 54 267 7.0 15.0 0.00 0.00 0.00 18
20200330195325 53 242 7.0 17.0 0.00 0.00 0.00 20
20200330194334 48 103 2.0 9.0 0.00 0.00 0.00 23
20200330193339 45 126 5.0 7.0 0.00 0.00 0.00 25
20200330192320 46 130 3.0 9.0 0.00 0.00 0.00 25
20200330191328 48 107 5.0 11.0 0.00 0.00 0.00 23
20200330190332 45 80 5.0 10.0 0.00 0.00 0.00 28
20200330185339 42 94 6.0 11.0 0.00 0.00 0.00 30
20200330184325 42 137 6.0 15.0 0.00 0.00 0.00 31
20200330183327 46 126 4.0 10.0 0.00 0.00 0.00 30
20200330182328 47 111 2.0 10.0 0.00 0.00 0.00 25
20200330181334 47 117 1.0 9.0 0.00 0.00 0.00 26
20200330180340 45 74 2.0 11.0 0.00 0.00 0.00 27
20200330175322 45 56 4.0 7.0 0.00 0.00 0.00 28
20200330174330 44 63 3.0 8.0 0.00 0.00 0.00 29
20200330173325 43 62 1.0 7.0 0.00 0.00 0.00 32
20200330172331 42 55 2.0 7.0 0.00 0.00 0.00 33
20200330171331 42 118 1.0 7.0 0.00 0.00 0.00 38
20200330170328 41 82 0.0 5.0 0.00 0.00 0.00 41
20200330165330 40 82 1.0 5.0 0.00 0.00 0.00 49
20200330164337 39 82 1.0 4.0 0.00 0.00 0.00 54
20200330163323 38 82 0.0 7.0 0.00 0.00 0.00 59
20200330162325 37 82 4.0 8.0 0.00 0.00 0.00 59
20200330161333 36 82 0.0 4.0 0.00 0.00 0.00 62
20200330160336 35 82 0.0 8.0 0.00 0.00 0.00 66
20200330155322 35 139 1.0 6.0 0.00 0.00 0.00 66
20200330154329 34 140 0.0 7.0 0.00 0.00 0.00 69
20200330153330 34 146 4.0 9.0 0.00 0.00 0.00 69
20200330152332 34 114 3.0 8.0 0.00 0.00 0.00 67
20200330151340 32 115 0.0 3.0 0.00 0.00 0.00 74
20200330150324 31 115 2.0 4.0 0.00 0.00 0.00 75
20200330145326 30 115 1.0 5.0 0.00 0.00 0.00 75
20200330144334 28 117 0.0 0.0 0.00 0.00 0.00 83
20200330143336 27 117 0.0 4.0 0.00 0.00 0.00 84
20200330142322 26 117 0.0 2.0 0.00 0.00 0.00 81
20200330141330 24 117 0.0 2.0 0.00 0.00 0.00 83
20200330140332 23 117 1.0 4.0 0.00 0.00 0.00 80
20200330135335 24 117 2.0 5.0 0.00 0.00 0.00 77
20200330134323 25 103 0.0 9.0 0.00 0.00 0.00 84
20200330133330 24 167 0.0 3.0 0.00 0.00 0.00 72
20200330132332 25 167 3.0 4.0 0.00 0.00 0.00 70
20200330131340 25 167 0.0 3.0 0.00 0.00 0.00 73
20200330130336 25 167 0.0 5.0 0.00 0.00 0.00 74
20200330125322 24 216 1.0 4.0 0.00 0.00 0.00 74
20200330124330 25 216 2.0 5.0 0.00 0.00 0.00 77
20200330123334 24 216 1.0 6.0 0.00 0.00 0.00 77
20200330122336 23 216 0.0 0.0 0.00 0.00 0.00 77
20200330121324 23 216 1.0 4.0 0.00 0.00 0.00 78
20200330120328 23 216 0.0 4.0 0.00 0.00 0.00 79
20200330115331 22 215 0.0 4.0 0.00 0.00 0.00 78
20200330114339 22 215 1.0 4.0 0.00 0.00 0.00 79
20200330113341 22 215 1.0 2.0 0.00 0.00 0.00 77
20200330112327 21 215 1.0 4.0 0.00 0.00 0.00 76
20200330111335 21 215 3.0 5.0 0.00 0.00 0.00 75
20200330110336 21 215 2.0 3.0 0.00 0.00 0.00 72
20200330105338 21 215 0.0 0.0 0.00 0.00 0.00 72
20200330104343 21 215 0.0 4.0 0.00 0.00 0.00 70
20200330103332 21 215 2.0 3.0 0.00 0.00 0.00 69
20200330102335 21 215 1.0 3.0 0.00 0.00 0.00 69
20200330101322 21 215 3.0 4.0 0.00 0.00 0.00 69
20200330100324 21 215 0.0 5.0 0.00 0.00 0.00 69
20200330095331 21 215 3.0 4.0 0.00 0.00 0.00 70